sensor_id;sensor_type;location;lat;lon;timestamp;pressure;altitude;pressure_sealevel;temperature;humidity
50166;BME280;36071;48.140;11.516;2023-02-15T00:03:27;96830.0;;;2.2;80.8
50166;BME280;36071;48.140;11.516;2023-02-15T00:08:27;96830.0;;;2.3;81.4
50166;BME280;36071;48.140;11.516;2023-02-15T00:13:28;96840.0;;;2.3;80.5
50166;BME280;36071;48.140;11.516;2023-02-15T00:18:28;96830.0;;;2.2;80.5
50166;BME280;36071;48.140;11.516;2023-02-15T00:23:28;96830.0;;;2.2;80.7
50166;BME280;36071;48.140;11.516;2023-02-15T00:28:28;96830.0;;;1.9;81.1
50166;BME280;36071;48.140;11.516;2023-02-15T00:33:27;96830.0;;;1.9;82.5
50166;BME280;36071;48.140;11.516;2023-02-15T00:38:28;96840.0;;;2.0;82.7
50166;BME280;36071;48.140;11.516;2023-02-15T00:43:28;96830.0;;;2.0;83.2
50166;BME280;36071;48.140;11.516;2023-02-15T00:48:27;96810.0;;;1.9;82.6
50166;BME280;36071;48.140;11.516;2023-02-15T00:53:28;96810.0;;;2.0;81.9
50166;BME280;36071;48.140;11.516;2023-02-15T00:58:28;96820.0;;;1.9;81.2
50166;BME280;36071;48.140;11.516;2023-02-15T01:03:27;96800.0;;;1.8;81.8
50166;BME280;36071;48.140;11.516;2023-02-15T01:08:28;96800.0;;;1.9;80.7
50166;BME280;36071;48.140;11.516;2023-02-15T01:13:28;96790.0;;;1.8;80.9
50166;BME280;36071;48.140;11.516;2023-02-15T01:18:27;96790.0;;;1.7;79.7
50166;BME280;36071;48.140;11.516;2023-02-15T01:23:27;96780.0;;;1.5;82.0
50166;BME280;36071;48.140;11.516;2023-02-15T01:28:28;96780.0;;;1.4;81.1
50166;BME280;36071;48.140;11.516;2023-02-15T01:33:27;96790.0;;;1.3;81.7
50166;BME280;36071;48.140;11.516;2023-02-15T01:38:27;96780.0;;;1.5;80.8
50166;BME280;36071;48.140;11.516;2023-02-15T01:43:38;96780.0;;;1.3;80.2
50166;BME280;36071;48.140;11.516;2023-02-15T01:48:27;96770.0;;;1.1;80.5
50166;BME280;36071;48.140;11.516;2023-02-15T01:53:28;96770.0;;;1.1;80.6
50166;BME280;36071;48.140;11.516;2023-02-15T01:58:28;96760.0;;;1.3;79.6
50166;BME280;36071;48.140;11.516;2023-02-15T02:03:30;96760.0;;;1.3;78.9
50166;BME280;36071;48.140;11.516;2023-02-15T02:08:28;96760.0;;;1.0;79.2
50166;BME280;36071;48.140;11.516;2023-02-15T02:13:28;96760.0;;;1.0;80.6
50166;BME280;36071;48.140;11.516;2023-02-15T02:18:35;96750.0;;;1.0;81.3
50166;BME280;36071;48.140;11.516;2023-02-15T02:23:30;96750.0;;;0.8;82.3
50166;BME280;36071;48.140;11.516;2023-02-15T02:28:33;96750.0;;;0.9;81.3
50166;BME280;36071;48.140;11.516;2023-02-15T02:33:31;96750.0;;;0.9;80.9
50166;BME280;36071;48.140;11.516;2023-02-15T02:43:29;96750.0;;;0.7;81.8
50166;BME280;36071;48.140;11.516;2023-02-15T02:48:29;96740.0;;;0.6;82.9
50166;BME280;36071;48.140;11.516;2023-02-15T02:53:28;96740.0;;;0.8;81.2
50166;BME280;36071;48.140;11.516;2023-02-15T02:58:29;96740.0;;;0.5;83.2
50166;BME280;36071;48.140;11.516;2023-02-15T03:03:29;96740.0;;;0.6;82.1
50166;BME280;36071;48.140;11.516;2023-02-15T03:08:29;96740.0;;;0.6;83.1
50166;BME280;36071;48.140;11.516;2023-02-15T03:13:28;96740.0;;;0.7;82.8
50166;BME280;36071;48.140;11.516;2023-02-15T03:18:28;96740.0;;;0.5;83.3
50166;BME280;36071;48.140;11.516;2023-02-15T03:23:28;96740.0;;;0.5;83.2
50166;BME280;36071;48.140;11.516;2023-02-15T03:28:29;96740.0;;;0.7;82.5
50166;BME280;36071;48.140;11.516;2023-02-15T03:33:27;96730.0;;;0.7;82.7
50166;BME280;36071;48.140;11.516;2023-02-15T03:38:29;96740.0;;;0.7;82.2
50166;BME280;36071;48.140;11.516;2023-02-15T03:43:30;96740.0;;;0.4;84.1
50166;BME280;36071;48.140;11.516;2023-02-15T03:48:28;96740.0;;;0.4;84.9
50166;BME280;36071;48.140;11.516;2023-02-15T03:53:27;96740.0;;;0.6;84.3
50166;BME280;36071;48.140;11.516;2023-02-15T03:58:27;96740.0;;;0.5;84.5
50166;BME280;36071;48.140;11.516;2023-02-15T04:03:28;96740.0;;;0.6;84.0
50166;BME280;36071;48.140;11.516;2023-02-15T04:08:27;96740.0;;;0.4;86.3
50166;BME280;36071;48.140;11.516;2023-02-15T04:13:29;96740.0;;;0.5;86.1
50166;BME280;36071;48.140;11.516;2023-02-15T04:18:28;96740.0;;;0.6;84.3
50166;BME280;36071;48.140;11.516;2023-02-15T04:23:27;96740.0;;;0.7;83.4
50166;BME280;36071;48.140;11.516;2023-02-15T04:28:27;96760.0;;;0.6;84.3
50166;BME280;36071;48.140;11.516;2023-02-15T04:33:28;96740.0;;;0.6;83.5
50166;BME280;36071;48.140;11.516;2023-02-15T04:38:27;96750.0;;;0.6;84.4
50166;BME280;36071;48.140;11.516;2023-02-15T04:43:27;96740.0;;;0.6;84.1
50166;BME280;36071;48.140;11.516;2023-02-15T04:48:28;96740.0;;;0.5;83.6
50166;BME280;36071;48.140;11.516;2023-02-15T04:53:27;96740.0;;;0.4;83.0
50166;BME280;36071;48.140;11.516;2023-02-15T04:58:27;96740.0;;;0.2;85.0
50166;BME280;36071;48.140;11.516;2023-02-15T05:03:27;96740.0;;;0.3;85.1
50166;BME280;36071;48.140;11.516;2023-02-15T05:08:27;96750.0;;;0.3;85.4
50166;BME280;36071;48.140;11.516;2023-02-15T05:13:27;96750.0;;;0.2;84.7
50166;BME280;36071;48.140;11.516;2023-02-15T05:18:28;96740.0;;;0.2;84.0
50166;BME280;36071;48.140;11.516;2023-02-15T05:23:28;96740.0;;;0.1;85.5
50166;BME280;36071;48.140;11.516;2023-02-15T05:28:27;96740.0;;;0.0;85.2
50166;BME280;36071;48.140;11.516;2023-02-15T05:33:28;96750.0;;;0.1;84.8
50166;BME280;36071;48.140;11.516;2023-02-15T05:38:28;96750.0;;;0.0;84.8
50166;BME280;36071;48.140;11.516;2023-02-15T05:43:28;96750.0;;;-0.2;85.6
50166;BME280;36071;48.140;11.516;2023-02-15T05:48:28;96750.0;;;-0.2;85.3
50166;BME280;36071;48.140;11.516;2023-02-15T05:53:28;96750.0;;;-0.1;85.9
50166;BME280;36071;48.140;11.516;2023-02-15T05:58:28;96750.0;;;0.1;84.7
50166;BME280;36071;48.140;11.516;2023-02-15T06:03:28;96760.0;;;0.0;84.2
50166;BME280;36071;48.140;11.516;2023-02-15T06:08:27;96760.0;;;-0.1;85.0
50166;BME280;36071;48.140;11.516;2023-02-15T06:13:27;96760.0;;;-0.1;84.4
50166;BME280;36071;48.140;11.516;2023-02-15T06:18:28;96760.0;;;0.0;84.9
50166;BME280;36071;48.140;11.516;2023-02-15T06:23:28;96760.0;;;0.0;83.7
50166;BME280;36071;48.140;11.516;2023-02-15T06:28:27;96760.0;;;0.0;83.3
50166;BME280;36071;48.140;11.516;2023-02-15T06:33:28;96770.0;;;-0.2;84.0
50166;BME280;36071;48.140;11.516;2023-02-15T06:38:27;96770.0;;;-0.2;84.7
50166;BME280;36071;48.140;11.516;2023-02-15T06:43:27;96770.0;;;-0.4;85.6
50166;BME280;36071;48.140;11.516;2023-02-15T06:48:28;96770.0;;;-0.2;83.6
50166;BME280;36071;48.140;11.516;2023-02-15T06:53:27;96770.0;;;-0.6;85.4
50166;BME280;36071;48.140;11.516;2023-02-15T06:58:27;96770.0;;;-0.6;86.5
50166;BME280;36071;48.140;11.516;2023-02-15T07:03:27;96770.0;;;-0.6;87.2
50166;BME280;36071;48.140;11.516;2023-02-15T07:08:27;96780.0;;;-0.4;86.2
50166;BME280;36071;48.140;11.516;2023-02-15T07:13:27;96780.0;;;-0.5;87.0
50166;BME280;36071;48.140;11.516;2023-02-15T07:18:27;96780.0;;;-0.5;86.8
50166;BME280;36071;48.140;11.516;2023-02-15T07:23:28;96780.0;;;-0.4;86.9
50166;BME280;36071;48.140;11.516;2023-02-15T07:28:28;96790.0;;;-0.2;84.8
50166;BME280;36071;48.140;11.516;2023-02-15T07:33:27;96780.0;;;0.0;83.9
50166;BME280;36071;48.140;11.516;2023-02-15T07:38:29;96780.0;;;-0.3;84.5
50166;BME280;36071;48.140;11.516;2023-02-15T07:43:28;96770.0;;;-0.1;83.3
50166;BME280;36071;48.140;11.516;2023-02-15T07:48:27;96770.0;;;0.0;82.7
50166;BME280;36071;48.140;11.516;2023-02-15T07:53:28;96770.0;;;-0.1;84.7
50166;BME280;36071;48.140;11.516;2023-02-15T07:58:27;96760.0;;;0.0;82.7
50166;BME280;36071;48.140;11.516;2023-02-15T08:03:27;96760.0;;;-0.1;83.6
50166;BME280;36071;48.140;11.516;2023-02-15T08:08:27;96760.0;;;0.1;84.2
50166;BME280;36071;48.140;11.516;2023-02-15T08:13:27;96760.0;;;0.2;82.7
50166;BME280;36071;48.140;11.516;2023-02-15T08:18:27;96750.0;;;0.2;83.4
50166;BME280;36071;48.140;11.516;2023-02-15T08:23:28;96760.0;;;0.4;82.6
50166;BME280;36071;48.140;11.516;2023-02-15T08:28:27;96760.0;;;0.6;81.4
50166;BME280;36071;48.140;11.516;2023-02-15T08:33:27;96760.0;;;0.5;80.9
50166;BME280;36071;48.140;11.516;2023-02-15T08:38:28;96760.0;;;0.6;80.5
50166;BME280;36071;48.140;11.516;2023-02-15T08:43:27;96760.0;;;0.6;80.3
50166;BME280;36071;48.140;11.516;2023-02-15T08:48:27;96760.0;;;1.1;79.2
50166;BME280;36071;48.140;11.516;2023-02-15T08:53:28;96750.0;;;1.4;78.2
50166;BME280;36071;48.140;11.516;2023-02-15T08:58:28;96760.0;;;2.3;75.0
50166;BME280;36071;48.140;11.516;2023-02-15T09:03:28;96750.0;;;3.0;72.2
50166;BME280;36071;48.140;11.516;2023-02-15T09:08:28;96740.0;;;3.3;68.4
50166;BME280;36071;48.140;11.516;2023-02-15T09:13:27;96740.0;;;3.3;69.0
50166;BME280;36071;48.140;11.516;2023-02-15T09:18:28;96750.0;;;3.6;67.8
50166;BME280;36071;48.140;11.516;2023-02-15T09:23:27;96740.0;;;4.3;65.3
50166;BME280;36071;48.140;11.516;2023-02-15T09:28:27;96740.0;;;4.9;63.9
50166;BME280;36071;48.140;11.516;2023-02-15T09:33:27;96730.0;;;5.3;63.3
50166;BME280;36071;48.140;11.516;2023-02-15T09:38:27;96730.0;;;6.0;60.7
50166;BME280;36071;48.140;11.516;2023-02-15T09:43:29;96730.0;;;8.0;52.8
50166;BME280;36071;48.140;11.516;2023-02-15T09:48:42;96740.0;;;9.6;47.7
50166;BME280;36071;48.140;11.516;2023-02-15T09:53:33;96740.0;;;9.7;49.0
50166;BME280;36071;48.140;11.516;2023-02-15T10:08:31;96730.0;;;9.9;47.0
50166;BME280;36071;48.140;11.516;2023-02-15T10:13:29;96730.0;;;9.9;47.2
50166;BME280;36071;48.140;11.516;2023-02-15T10:18:33;96720.0;;;10.5;46.0
50166;BME280;36071;48.140;11.516;2023-02-15T10:23:33;96720.0;;;11.1;44.4
50166;BME280;36071;48.140;11.516;2023-02-15T10:28:29;96710.0;;;11.3;43.5
50166;BME280;36071;48.140;11.516;2023-02-15T10:33:33;96710.0;;;11.9;42.6
50166;BME280;36071;48.140;11.516;2023-02-15T10:38:29;96710.0;;;12.7;40.4
50166;BME280;36071;48.140;11.516;2023-02-15T10:43:33;96710.0;;;13.8;38.5
50166;BME280;36071;48.140;11.516;2023-02-15T10:48:54;96700.0;;;14.6;36.9
50166;BME280;36071;48.140;11.516;2023-02-15T10:53:38;96700.0;;;16.2;36.1
50166;BME280;36071;48.140;11.516;2023-02-15T10:58:30;96690.0;;;16.3;35.3
50166;BME280;36071;48.140;11.516;2023-02-15T11:03:32;96680.0;;;16.4;35.2
50166;BME280;36071;48.140;11.516;2023-02-15T11:08:29;96670.0;;;17.2;34.3
50166;BME280;36071;48.140;11.516;2023-02-15T11:13:29;96660.0;;;17.8;33.1
50166;BME280;36071;48.140;11.516;2023-02-15T11:18:28;96650.0;;;17.8;33.7
50166;BME280;36071;48.140;11.516;2023-02-15T11:23:28;96650.0;;;17.7;33.1
50166;BME280;36071;48.140;11.516;2023-02-15T11:28:30;96640.0;;;17.8;33.2
50166;BME280;36071;48.140;11.516;2023-02-15T11:33:29;96630.0;;;18.1;33.4
50166;BME280;36071;48.140;11.516;2023-02-15T11:38:28;96630.0;;;17.8;33.8
50166;BME280;36071;48.140;11.516;2023-02-15T11:43:28;96620.0;;;18.4;32.6
50166;BME280;36071;48.140;11.516;2023-02-15T11:48:27;96610.0;;;18.6;32.3
50166;BME280;36071;48.140;11.516;2023-02-15T11:53:28;96600.0;;;17.0;34.5
50166;BME280;36071;48.140;11.516;2023-02-15T11:58:30;96600.0;;;16.4;35.3
50166;BME280;36071;48.140;11.516;2023-02-15T12:03:29;96600.0;;;15.9;36.8
50166;BME280;36071;48.140;11.516;2023-02-15T12:08:29;96590.0;;;16.3;36.2
50166;BME280;36071;48.140;11.516;2023-02-15T12:13:28;96580.0;;;16.8;35.4
50166;BME280;36071;48.140;11.516;2023-02-15T12:18:33;96570.0;;;16.3;36.7
50166;BME280;36071;48.140;11.516;2023-02-15T12:23:28;96580.0;;;15.9;37.3
50166;BME280;36071;48.140;11.516;2023-02-15T12:28:31;96560.0;;;15.8;37.3
50166;BME280;36071;48.140;11.516;2023-02-15T12:33:28;96560.0;;;16.0;37.1
50166;BME280;36071;48.140;11.516;2023-02-15T12:38:28;96550.0;;;16.5;36.2
50166;BME280;36071;48.140;11.516;2023-02-15T12:43:31;96540.0;;;16.1;36.9
50166;BME280;36071;48.140;11.516;2023-02-15T12:48:27;96550.0;;;16.2;36.6
50166;BME280;36071;48.140;11.516;2023-02-15T12:53:30;96540.0;;;16.6;36.6
50166;BME280;36071;48.140;11.516;2023-02-15T12:58:28;96530.0;;;16.3;36.5
50166;BME280;36071;48.140;11.516;2023-02-15T13:03:28;96530.0;;;16.6;37.3
50166;BME280;36071;48.140;11.516;2023-02-15T13:08:28;96530.0;;;16.8;36.2
50166;BME280;36071;48.140;11.516;2023-02-15T13:13:28;96520.0;;;16.9;36.2
50166;BME280;36071;48.140;11.516;2023-02-15T13:18:30;96510.0;;;16.9;35.7
50166;BME280;36071;48.140;11.516;2023-02-15T13:23:28;96510.0;;;17.0;35.5
50166;BME280;36071;48.140;11.516;2023-02-15T13:28:31;96510.0;;;17.1;35.1
50166;BME280;36071;48.140;11.516;2023-02-15T13:33:30;96500.0;;;17.0;35.8
50166;BME280;36071;48.140;11.516;2023-02-15T13:38:40;96500.0;;;16.6;35.9
50166;BME280;36071;48.140;11.516;2023-02-15T13:43:32;96500.0;;;16.8;36.2
50166;BME280;36071;48.140;11.516;2023-02-15T13:48:30;96500.0;;;16.4;36.0
50166;BME280;36071;48.140;11.516;2023-02-15T13:53:33;96510.0;;;16.2;37.0
50166;BME280;36071;48.140;11.516;2023-02-15T13:58:33;96500.0;;;16.3;37.3
50166;BME280;36071;48.140;11.516;2023-02-15T14:03:35;96500.0;;;16.2;37.5
50166;BME280;36071;48.140;11.516;2023-02-15T14:08:33;96500.0;;;16.2;37.8
50166;BME280;36071;48.140;11.516;2023-02-15T14:13:41;96510.0;;;16.3;37.7
50166;BME280;36071;48.140;11.516;2023-02-15T14:18:31;96500.0;;;16.2;37.7
50166;BME280;36071;48.140;11.516;2023-02-15T14:23:32;96500.0;;;15.9;38.8
50166;BME280;36071;48.140;11.516;2023-02-15T14:28:28;96490.0;;;15.4;39.3
50166;BME280;36071;48.140;11.516;2023-02-15T14:33:30;96490.0;;;15.4;39.4
50166;BME280;36071;48.140;11.516;2023-02-15T14:38:36;96480.0;;;15.5;39.1
50166;BME280;36071;48.140;11.516;2023-02-15T14:43:31;96490.0;;;15.3;39.7
50166;BME280;36071;48.140;11.516;2023-02-15T14:48:31;96490.0;;;15.2;39.8
50166;BME280;36071;48.140;11.516;2023-02-15T14:53:33;96480.0;;;14.9;40.2
50166;BME280;36071;48.140;11.516;2023-02-15T14:58:28;96490.0;;;14.8;40.6
50166;BME280;36071;48.140;11.516;2023-02-15T15:03:27;96490.0;;;14.7;40.4
50166;BME280;36071;48.140;11.516;2023-02-15T15:08:29;96480.0;;;14.5;41.3
50166;BME280;36071;48.140;11.516;2023-02-15T15:13:36;96480.0;;;14.6;41.3
50166;BME280;36071;48.140;11.516;2023-02-15T15:18:43;96480.0;;;14.0;41.9
50166;BME280;36071;48.140;11.516;2023-02-15T15:23:38;96480.0;;;14.3;41.7
50166;BME280;36071;48.140;11.516;2023-02-15T15:28:59;96480.0;;;13.8;42.7
50166;BME280;36071;48.140;11.516;2023-02-15T15:33:36;96490.0;;;13.6;43.1
50166;BME280;36071;48.140;11.516;2023-02-15T15:38:30;96490.0;;;13.1;44.0
50166;BME280;36071;48.140;11.516;2023-02-15T15:43:33;96490.0;;;12.9;44.7
50166;BME280;36071;48.140;11.516;2023-02-15T15:48:28;96500.0;;;12.3;45.9
50166;BME280;36071;48.140;11.516;2023-02-15T15:53:29;96510.0;;;12.1;46.5
50166;BME280;36071;48.140;11.516;2023-02-15T15:58:28;96500.0;;;12.0;46.7
50166;BME280;36071;48.140;11.516;2023-02-15T16:03:28;96490.0;;;11.6;47.5
50166;BME280;36071;48.140;11.516;2023-02-15T16:08:29;96510.0;;;11.3;48.4
50166;BME280;36071;48.140;11.516;2023-02-15T16:13:28;96500.0;;;11.1;48.6
50166;BME280;36071;48.140;11.516;2023-02-15T16:18:28;96510.0;;;10.7;50.0
50166;BME280;36071;48.140;11.516;2023-02-15T16:23:34;96510.0;;;10.5;50.3
50166;BME280;36071;48.140;11.516;2023-02-15T16:28:28;96520.0;;;10.4;50.6
50166;BME280;36071;48.140;11.516;2023-02-15T16:33:33;96530.0;;;10.2;50.6
50166;BME280;36071;48.140;11.516;2023-02-15T16:43:28;96540.0;;;9.5;51.6
50166;BME280;36071;48.140;11.516;2023-02-15T16:48:28;96490.0;;;8.6;52.6
50166;BME280;36071;48.140;11.516;2023-02-15T16:53:28;96540.0;;;9.0;53.4
50166;BME280;36071;48.140;11.516;2023-02-15T16:58:29;96540.0;;;8.4;54.7
50166;BME280;36071;48.140;11.516;2023-02-15T17:03:29;96550.0;;;8.1;55.3
50166;BME280;36071;48.140;11.516;2023-02-15T17:08:29;96560.0;;;8.1;56.0
50166;BME280;36071;48.140;11.516;2023-02-15T17:13:28;96480.0;;;7.6;56.2
50166;BME280;36071;48.140;11.516;2023-02-15T17:18:28;96570.0;;;7.7;56.8
50166;BME280;36071;48.140;11.516;2023-02-15T17:23:28;96570.0;;;7.6;57.6
50166;BME280;36071;48.140;11.516;2023-02-15T17:28:28;96580.0;;;7.5;58.1
50166;BME280;36071;48.140;11.516;2023-02-15T17:33:35;96570.0;;;7.4;58.5
50166;BME280;36071;48.140;11.516;2023-02-15T17:38:28;96580.0;;;7.3;58.0
50166;BME280;36071;48.140;11.516;2023-02-15T17:43:28;96580.0;;;7.5;58.3
50166;BME280;36071;48.140;11.516;2023-02-15T17:48:28;96570.0;;;7.3;58.4
50166;BME280;36071;48.140;11.516;2023-02-15T17:53:28;96580.0;;;7.3;58.9
50166;BME280;36071;48.140;11.516;2023-02-15T17:58:28;96570.0;;;6.9;59.7
50166;BME280;36071;48.140;11.516;2023-02-15T18:03:29;96570.0;;;6.9;60.0
50166;BME280;36071;48.140;11.516;2023-02-15T18:08:28;96580.0;;;6.7;60.3
50166;BME280;36071;48.140;11.516;2023-02-15T18:13:28;96580.0;;;6.8;59.3
50166;BME280;36071;48.140;11.516;2023-02-15T18:18:28;96590.0;;;6.9;59.7
50166;BME280;36071;48.140;11.516;2023-02-15T18:23:28;96580.0;;;6.6;59.5
50166;BME280;36071;48.140;11.516;2023-02-15T18:28:28;96590.0;;;6.2;61.1
50166;BME280;36071;48.140;11.516;2023-02-15T18:33:32;96590.0;;;6.1;60.9
50166;BME280;36071;48.140;11.516;2023-02-15T18:38:28;96590.0;;;6.2;60.9
50166;BME280;36071;48.140;11.516;2023-02-15T18:43:28;96590.0;;;5.8;62.0
50166;BME280;36071;48.140;11.516;2023-02-15T18:48:28;96590.0;;;5.9;62.8
50166;BME280;36071;48.140;11.516;2023-02-15T18:53:28;96590.0;;;5.6;63.1
50166;BME280;36071;48.140;11.516;2023-02-15T18:58:28;96580.0;;;5.8;62.5
50166;BME280;36071;48.140;11.516;2023-02-15T19:03:28;96600.0;;;5.7;63.9
50166;BME280;36071;48.140;11.516;2023-02-15T19:08:28;96600.0;;;5.7;63.3
50166;BME280;36071;48.140;11.516;2023-02-15T19:13:28;96600.0;;;5.5;64.4
50166;BME280;36071;48.140;11.516;2023-02-15T19:18:28;96600.0;;;5.2;67.7
50166;BME280;36071;48.140;11.516;2023-02-15T19:23:28;96610.0;;;5.2;66.9
50166;BME280;36071;48.140;11.516;2023-02-15T19:28:28;96610.0;;;4.7;69.6
50166;BME280;36071;48.140;11.516;2023-02-15T19:33:28;96600.0;;;4.7;69.5
50166;BME280;36071;48.140;11.516;2023-02-15T19:38:28;96600.0;;;4.8;71.6
50166;BME280;36071;48.140;11.516;2023-02-15T19:43:28;96600.0;;;4.7;71.2
50166;BME280;36071;48.140;11.516;2023-02-15T19:48:28;96610.0;;;4.6;69.8
50166;BME280;36071;48.140;11.516;2023-02-15T19:53:28;96610.0;;;4.3;71.7
50166;BME280;36071;48.140;11.516;2023-02-15T19:58:28;96600.0;;;4.1;71.9
50166;BME280;36071;48.140;11.516;2023-02-15T20:03:28;96600.0;;;4.2;71.0
50166;BME280;36071;48.140;11.516;2023-02-15T20:08:28;96600.0;;;4.1;72.0
50166;BME280;36071;48.140;11.516;2023-02-15T20:13:28;96590.0;;;4.0;72.7
50166;BME280;36071;48.140;11.516;2023-02-15T20:18:28;96590.0;;;4.1;72.9
50166;BME280;36071;48.140;11.516;2023-02-15T20:28:28;96590.0;;;4.3;73.8
50166;BME280;36071;48.140;11.516;2023-02-15T20:33:28;96590.0;;;4.1;74.5
50166;BME280;36071;48.140;11.516;2023-02-15T20:38:28;96580.0;;;3.9;75.3
50166;BME280;36071;48.140;11.516;2023-02-15T20:43:28;96580.0;;;3.8;75.6
50166;BME280;36071;48.140;11.516;2023-02-15T20:48:28;96580.0;;;3.6;76.4
50166;BME280;36071;48.140;11.516;2023-02-15T20:53:28;96580.0;;;3.9;74.7
50166;BME280;36071;48.140;11.516;2023-02-15T20:58:28;96580.0;;;3.7;75.8
50166;BME280;36071;48.140;11.516;2023-02-15T21:03:28;96590.0;;;3.2;78.8
50166;BME280;36071;48.140;11.516;2023-02-15T21:08:28;96580.0;;;3.6;76.6
50166;BME280;36071;48.140;11.516;2023-02-15T21:13:29;96590.0;;;3.4;76.8
50166;BME280;36071;48.140;11.516;2023-02-15T21:18:28;96590.0;;;3.5;75.7
50166;BME280;36071;48.140;11.516;2023-02-15T21:23:28;96590.0;;;3.5;75.9
50166;BME280;36071;48.140;11.516;2023-02-15T21:28:28;96600.0;;;3.3;77.2
50166;BME280;36071;48.140;11.516;2023-02-15T21:33:28;96590.0;;;3.4;76.7
50166;BME280;36071;48.140;11.516;2023-02-15T21:38:28;96600.0;;;3.2;77.6
50166;BME280;36071;48.140;11.516;2023-02-15T21:43:28;96590.0;;;3.3;78.4
50166;BME280;36071;48.140;11.516;2023-02-15T21:48:28;96600.0;;;3.2;76.7
50166;BME280;36071;48.140;11.516;2023-02-15T21:53:29;96600.0;;;3.2;77.6
50166;BME280;36071;48.140;11.516;2023-02-15T21:58:29;96590.0;;;3.0;76.9
50166;BME280;36071;48.140;11.516;2023-02-15T22:03:29;96580.0;;;2.9;77.1
50166;BME280;36071;48.140;11.516;2023-02-15T22:08:28;96590.0;;;3.2;77.0
50166;BME280;36071;48.140;11.516;2023-02-15T22:13:29;96590.0;;;2.7;77.5
50166;BME280;36071;48.140;11.516;2023-02-15T22:18:28;96580.0;;;2.7;78.2
50166;BME280;36071;48.140;11.516;2023-02-15T22:23:28;96580.0;;;2.7;77.2
50166;BME280;36071;48.140;11.516;2023-02-15T22:28:30;96560.0;;;2.8;77.7
50166;BME280;36071;48.140;11.516;2023-02-15T22:33:28;96560.0;;;2.9;74.9
50166;BME280;36071;48.140;11.516;2023-02-15T22:38:28;96550.0;;;2.6;76.5
50166;BME280;36071;48.140;11.516;2023-02-15T22:43:32;96550.0;;;2.5;76.2
50166;BME280;36071;48.140;11.516;2023-02-15T22:48:28;96540.0;;;2.6;76.6
50166;BME280;36071;48.140;11.516;2023-02-15T22:53:28;96540.0;;;2.6;76.8
50166;BME280;36071;48.140;11.516;2023-02-15T22:58:28;96540.0;;;2.9;75.0
50166;BME280;36071;48.140;11.516;2023-02-15T23:03:29;96530.0;;;2.9;74.3
50166;BME280;36071;48.140;11.516;2023-02-15T23:08:28;96530.0;;;3.0;73.7
50166;BME280;36071;48.140;11.516;2023-02-15T23:13:29;96530.0;;;2.7;75.2
50166;BME280;36071;48.140;11.516;2023-02-15T23:18:30;96540.0;;;2.8;75.2
50166;BME280;36071;48.140;11.516;2023-02-15T23:23:30;96530.0;;;2.8;74.0
50166;BME280;36071;48.140;11.516;2023-02-15T23:28:28;96540.0;;;2.7;74.2
50166;BME280;36071;48.140;11.516;2023-02-15T23:33:30;96540.0;;;2.7;74.3
50166;BME280;36071;48.140;11.516;2023-02-15T23:38:28;96540.0;;;2.8;73.2
50166;BME280;36071;48.140;11.516;2023-02-15T23:43:28;96530.0;;;2.8;73.3
50166;BME280;36071;48.140;11.516;2023-02-15T23:48:29;96520.0;;;2.6;74.0
50166;BME280;36071;48.140;11.516;2023-02-15T23:53:28;96540.0;;;2.8;73.6
50166;BME280;36071;48.140;11.516;2023-02-15T23:58:32;96520.0;;;2.7;73.7
